createdAt,value
2019-03-20T00:01:55.165Z,103090.39
2019-03-20T00:04:25.560Z,103089.67
2019-03-20T00:06:56.326Z,103096.74
2019-03-20T00:09:26.457Z,103097.33
2019-03-20T00:11:56.691Z,103094.70
2019-03-20T00:14:26.786Z,103105.77
2019-03-20T00:16:56.928Z,103108.02
2019-03-20T00:19:27.062Z,103106.98
2019-03-20T00:21:57.305Z,103104.03
2019-03-20T00:24:27.434Z,103100.44
2019-03-20T00:26:57.675Z,103101.58
2019-03-20T00:29:27.809Z,103100.91
2019-03-20T00:31:57.903Z,103098.47
2019-03-20T00:34:27.959Z,103094.37
2019-03-20T00:36:58.191Z,103105.14
2019-03-20T00:39:28.325Z,103098.53
2019-03-20T00:41:58.407Z,103104.47
2019-03-20T00:44:28.524Z,103089.95
2019-03-20T00:46:58.748Z,103090.63
2019-03-20T00:49:28.819Z,103084.75
2019-03-20T00:51:59.031Z,103085.85
2019-03-20T00:54:29.250Z,103080.48
2019-03-20T00:56:59.471Z,103082.10
2019-03-20T00:59:29.762Z,103079.72
2019-03-20T01:02:00.064Z,103087.46
2019-03-20T01:04:30.252Z,103088.19
2019-03-20T01:07:00.488Z,103085.80
2019-03-20T01:09:30.754Z,103087.25
2019-03-20T01:12:00.883Z,103075.03
2019-03-20T01:14:31.579Z,103076.17
2019-03-20T01:17:01.679Z,103071.69
2019-03-20T01:19:31.762Z,103068.00
2019-03-20T01:22:01.988Z,103080.95
2019-03-20T01:24:32.200Z,103087.04
2019-03-20T01:27:02.421Z,103087.52
2019-03-20T01:29:32.506Z,103089.73
2019-03-20T01:32:02.716Z,103088.44
2019-03-20T01:34:33.244Z,103093.64
2019-03-20T01:37:03.351Z,103091.11
2019-03-20T01:39:33.498Z,103083.71
2019-03-20T01:42:03.726Z,103082.00
2019-03-20T01:44:33.766Z,103084.60
2019-03-20T01:47:06.659Z,103081.83
2019-03-20T01:49:35.887Z,103083.03
2019-03-20T01:52:06.853Z,103077.57
2019-03-20T01:54:36.942Z,103082.38
2019-03-20T01:57:07.138Z,103078.72
2019-03-20T01:59:37.218Z,103077.15
2019-03-20T02:02:07.426Z,103072.47
2019-03-20T02:04:37.502Z,103070.11
2019-03-20T02:07:07.631Z,103077.71
2019-03-20T02:09:37.687Z,103074.63
2019-03-20T02:12:07.844Z,103071.93
2019-03-20T02:14:38.282Z,103074.47
2019-03-20T02:17:08.393Z,103067.28
2019-03-20T02:19:38.522Z,103064.79
2019-03-20T02:22:08.731Z,103065.51
2019-03-20T02:24:38.851Z,103064.14
2019-03-20T02:27:09.157Z,103060.03
2019-03-20T02:29:39.279Z,103057.37
2019-03-20T02:32:09.362Z,103054.84
2019-03-20T02:34:39.487Z,103052.23
2019-03-20T02:37:09.689Z,103047.55
2019-03-20T02:39:39.735Z,103053.95
2019-03-20T02:42:09.851Z,103049.64
2019-03-20T02:44:39.917Z,103049.73
2019-03-20T02:47:10.121Z,103049.33
2019-03-20T02:49:40.258Z,103050.32
2019-03-20T02:52:10.306Z,103042.63
2019-03-20T02:54:40.378Z,103045.29
2019-03-20T02:57:10.520Z,103043.98
2019-03-20T02:59:40.673Z,103039.30
2019-03-20T03:02:10.862Z,103034.58
2019-03-20T03:04:40.984Z,103038.17
2019-03-20T03:07:11.374Z,103042.34
2019-03-20T03:09:41.780Z,103047.73
2019-03-20T03:12:12.239Z,103050.09
2019-03-20T03:14:42.555Z,103050.61
2019-03-20T03:17:12.979Z,103039.17
2019-03-20T03:19:43.250Z,103050.83
2019-03-20T03:22:13.621Z,103047.09
2019-03-20T03:24:44.015Z,103045.46
2019-03-20T03:27:14.333Z,103040.37
2019-03-20T03:29:44.640Z,103043.17
2019-03-20T03:32:15.152Z,103049.98
2019-03-20T03:34:45.446Z,103041.95
2019-03-20T03:37:18.920Z,103049.47
2019-03-20T03:39:49.278Z,103041.23
2019-03-20T03:42:19.583Z,103030.75
2019-03-20T03:44:50.033Z,103026.30
2019-03-20T03:47:20.485Z,103024.26
2019-03-20T03:49:50.901Z,103035.67
2019-03-20T03:52:21.432Z,103030.30
2019-03-20T03:54:51.714Z,103027.52
2019-03-20T03:57:22.126Z,103038.69
2019-03-20T03:59:52.499Z,103048.94
2019-03-20T04:02:22.888Z,103044.39
2019-03-20T04:04:53.371Z,103050.73
2019-03-20T04:07:24.004Z,103053.10
2019-03-20T04:09:54.279Z,103050.64
2019-03-20T04:12:24.542Z,103052.92
2019-03-20T04:14:54.849Z,103053.91
2019-03-20T04:17:27.772Z,103053.73
2019-03-20T04:19:58.200Z,103060.25
2019-03-20T04:22:28.667Z,103055.50
2019-03-20T04:24:58.917Z,103048.19
2019-03-20T04:27:29.328Z,103046.05
2019-03-20T04:29:59.829Z,103046.55
2019-03-20T04:32:30.363Z,103049.22
2019-03-20T04:35:00.681Z,103048.84
2019-03-20T04:37:30.945Z,103053.73
2019-03-20T04:40:01.207Z,103061.19
2019-03-20T04:42:31.581Z,103058.67
2019-03-20T04:45:02.077Z,103064.45
2019-03-20T04:47:32.585Z,103068.55
2019-03-20T04:50:02.953Z,103062.08
2019-03-20T04:52:33.177Z,103070.46
2019-03-20T04:55:03.704Z,103064.13
2019-03-20T04:57:34.021Z,103064.17
2019-03-20T05:00:04.743Z,103067.77
2019-03-20T05:02:34.973Z,103066.22
2019-03-20T05:05:05.356Z,103068.92
2019-03-20T05:07:35.436Z,103064.59
2019-03-20T05:10:16.716Z,103068.17
2019-03-20T05:12:46.930Z,103068.17
2019-03-20T05:15:17.131Z,103060.81
2019-03-20T05:17:47.455Z,103069.15
2019-03-20T05:20:17.580Z,103068.48
2019-03-20T05:22:47.716Z,103069.38
2019-03-20T05:25:17.836Z,103069.44
2019-03-20T05:27:47.956Z,103069.94
2019-03-20T05:30:18.334Z,103067.42
2019-03-20T05:32:48.567Z,103063.55
2019-03-20T05:35:18.617Z,103071.05
2019-03-20T05:37:48.725Z,103069.09
2019-03-20T05:40:18.960Z,103073.98
2019-03-20T05:42:49.095Z,103065.41
2019-03-20T05:45:19.313Z,103074.68
2019-03-20T05:47:49.382Z,103068.71
2019-03-20T05:50:19.588Z,103073.60
2019-03-20T05:52:49.997Z,103079.00
2019-03-20T05:55:20.235Z,103083.14
2019-03-20T05:57:50.392Z,103085.00
2019-03-20T06:00:21.005Z,103087.28
2019-03-20T06:02:51.247Z,103089.23
2019-03-20T06:05:21.370Z,103085.92
2019-03-20T06:07:51.455Z,103092.11
2019-03-20T06:10:21.597Z,103093.59
2019-03-20T06:12:51.948Z,103094.14
2019-03-20T06:15:24.544Z,103086.73
2019-03-20T06:17:55.203Z,103088.64
2019-03-20T06:20:25.645Z,103096.64
2019-03-20T06:22:56.154Z,103091.09
2019-03-20T06:25:26.521Z,103095.27
2019-03-20T06:27:57.351Z,103087.98
2019-03-20T06:30:27.831Z,103095.53
2019-03-20T06:32:59.861Z,103093.98
2019-03-20T06:35:30.471Z,103103.76
2019-03-20T06:38:00.827Z,103105.70
2019-03-20T06:40:31.213Z,103109.42
2019-03-20T06:43:01.529Z,103106.13
2019-03-20T06:45:31.974Z,103107.23
2019-03-20T06:48:02.425Z,103109.17
2019-03-20T06:50:32.891Z,103099.19
2019-03-20T06:53:03.352Z,103107.07
2019-03-20T06:55:33.741Z,103116.64
2019-03-20T06:58:04.191Z,103115.26
2019-03-20T07:01:16.090Z,103123.47
2019-03-20T07:04:20.429Z,103116.25
2019-03-20T07:07:15.355Z,103116.30
2019-03-20T07:10:38.115Z,103128.16
2019-03-20T07:13:08.564Z,103128.78
2019-03-20T07:15:38.928Z,103129.11
2019-03-20T07:18:09.431Z,103124.63
2019-03-20T07:20:39.856Z,103129.88
2019-03-20T07:23:10.737Z,103124.09
2019-03-20T07:25:41.189Z,103123.52
2019-03-20T07:28:11.563Z,103118.06
2019-03-20T07:30:42.672Z,103122.45
2019-03-20T07:33:13.057Z,103120.92
2019-03-20T07:35:43.450Z,103129.13
2019-03-20T07:38:13.919Z,103130.67
2019-03-20T07:40:44.153Z,103130.41
2019-03-20T07:43:14.433Z,103141.19
2019-03-20T07:45:44.698Z,103140.91
2019-03-20T07:48:22.003Z,103150.08
2019-03-20T07:50:46.869Z,103150.42
2019-03-20T07:53:17.037Z,103150.34
2019-03-20T07:55:47.259Z,103162.56
2019-03-20T07:58:17.513Z,103155.24
2019-03-20T08:00:47.672Z,103157.16
2019-03-20T08:03:17.958Z,103150.46
2019-03-20T08:05:48.178Z,103154.73
2019-03-20T08:08:18.532Z,103150.25
2019-03-20T08:10:48.707Z,103154.05
2019-03-20T08:13:19.090Z,103153.96
2019-03-20T08:15:49.468Z,103159.50
2019-03-20T08:18:19.594Z,103160.01
2019-03-20T08:20:49.751Z,103146.05
2019-03-20T08:23:20.040Z,103157.25
2019-03-20T08:25:50.147Z,103153.63
2019-03-20T08:28:20.299Z,103151.97
2019-03-20T08:30:50.378Z,103153.84
2019-03-20T08:33:20.872Z,103155.16
2019-03-20T08:35:50.942Z,103159.09
2019-03-20T08:38:25.460Z,103164.58
2019-03-20T08:40:55.717Z,103172.95
2019-03-20T08:43:25.904Z,103166.84
2019-03-20T08:45:56.162Z,103171.81
2019-03-20T08:48:26.457Z,103173.65
2019-03-20T08:50:56.739Z,103180.21
2019-03-20T08:53:26.867Z,103180.60
2019-03-20T08:55:57.205Z,103177.95
2019-03-20T08:58:27.370Z,103181.81
2019-03-20T09:00:57.633Z,103182.34
2019-03-20T09:03:27.782Z,103179.86
2019-03-20T09:05:57.977Z,103184.78
2019-03-20T09:08:29.801Z,103188.89
2019-03-20T09:11:00.201Z,103192.57
2019-03-20T09:13:30.368Z,103191.39
2019-03-20T09:16:00.435Z,103193.59
2019-03-20T09:18:30.606Z,103191.63
2019-03-20T09:21:00.792Z,103194.00
2019-03-20T09:23:31.024Z,103193.14
2019-03-20T09:26:01.129Z,103196.27
2019-03-20T09:28:31.409Z,103194.23
2019-03-20T09:31:01.666Z,103195.22
2019-03-20T09:33:31.847Z,103195.75
2019-03-20T09:36:02.043Z,103194.60
2019-03-20T09:38:42.738Z,103201.76
2019-03-20T09:41:04.304Z,103200.31
2019-03-20T09:43:34.516Z,103197.36
2019-03-20T09:46:06.949Z,103210.09
2019-03-20T09:48:37.083Z,103207.68
2019-03-20T09:51:07.242Z,103219.17
2019-03-20T09:56:16.065Z,103219.13
2019-03-20T09:58:46.311Z,103219.82
2019-03-20T10:01:16.530Z,103225.02
2019-03-20T10:03:48.942Z,103225.71
2019-03-20T10:06:19.111Z,103232.58
2019-03-20T10:08:54.028Z,103236.95
2019-03-20T10:11:21.447Z,103239.94
2019-03-20T10:13:54.932Z,103250.22
2019-03-20T10:16:25.248Z,103251.80
2019-03-20T10:18:55.470Z,103261.59
2019-03-20T10:21:25.669Z,103265.03
2019-03-20T10:23:55.952Z,103260.70
2019-03-20T10:26:26.118Z,103263.27
2019-03-20T10:28:56.247Z,103266.77
2019-03-20T10:31:26.375Z,103263.69
2019-03-20T10:33:56.625Z,103265.72
2019-03-20T10:36:26.935Z,103261.09
2019-03-20T10:39:06.018Z,103266.50
2019-03-20T10:41:29.464Z,103263.22
2019-03-20T10:43:59.788Z,103260.55
2019-03-20T10:46:30.521Z,103260.95
2019-03-20T10:49:00.798Z,103260.20
2019-03-20T10:51:31.052Z,103256.42
2019-03-20T10:54:01.380Z,103260.92
2019-03-20T10:56:31.721Z,103265.92
2019-03-20T10:59:02.015Z,103265.66
2019-03-20T11:01:42.063Z,103266.34
2019-03-20T11:04:04.632Z,103272.98
2019-03-20T11:06:34.969Z,103274.00
2019-03-20T11:09:17.630Z,103272.78
2019-03-20T11:11:40.291Z,103286.52
2019-03-20T11:14:10.638Z,103288.78
2019-03-20T11:16:40.960Z,103283.98
2019-03-20T11:19:11.214Z,103284.31
2019-03-20T11:21:41.424Z,103282.08
2019-03-20T11:24:11.784Z,103285.66
2019-03-20T11:26:41.990Z,103286.19
2019-03-20T11:29:12.149Z,103289.53
2019-03-20T11:31:42.470Z,103294.82
2019-03-20T11:34:13.043Z,103288.25
2019-03-20T11:36:43.460Z,103298.40
2019-03-20T11:39:13.768Z,103298.40
2019-03-20T11:41:43.984Z,103298.40
2019-03-20T11:44:14.417Z,103302.77
2019-03-20T11:46:44.741Z,103297.52
2019-03-20T11:49:15.136Z,103305.77
2019-03-20T11:51:45.389Z,103307.02
2019-03-20T11:54:15.877Z,103307.86
2019-03-20T11:56:46.070Z,103313.05
2019-03-20T11:59:16.356Z,103311.22
2019-03-20T12:01:46.580Z,103311.22
2019-03-20T12:04:16.735Z,103309.80
2019-03-20T12:06:46.883Z,103313.61
2019-03-20T12:09:17.080Z,103309.11
2019-03-20T12:11:47.183Z,103312.72
2019-03-20T12:14:17.473Z,103315.57
2019-03-20T12:16:47.752Z,103325.88
2019-03-20T12:19:17.908Z,103315.45
2019-03-20T12:21:48.242Z,103313.54
2019-03-20T12:24:18.329Z,103307.50
2019-03-20T12:26:48.665Z,103300.22
2019-03-20T12:29:19.048Z,103303.34
2019-03-20T12:31:49.354Z,103305.54
2019-03-20T12:34:19.491Z,103305.22
2019-03-20T12:36:49.802Z,103301.73
2019-03-20T12:39:20.110Z,103300.52
2019-03-20T12:41:50.350Z,103304.60
2019-03-20T12:44:20.634Z,103303.71
2019-03-20T12:46:50.904Z,103303.39
2019-03-20T12:49:21.059Z,103299.58
2019-03-20T12:51:51.373Z,103294.89
2019-03-20T12:54:21.622Z,103300.38
2019-03-20T12:56:52.235Z,103304.55
2019-03-20T12:59:22.542Z,103299.98
2019-03-20T13:01:52.828Z,103302.34
2019-03-20T13:04:24.948Z,103306.45
2019-03-20T13:06:55.285Z,103310.16
2019-03-20T13:09:25.567Z,103299.64
2019-03-20T13:11:55.850Z,103303.09
2019-03-20T13:14:26.181Z,103300.40
2019-03-20T13:16:56.572Z,103298.42
2019-03-20T13:19:26.978Z,103299.96
2019-03-20T13:21:57.316Z,103299.62
2019-03-20T13:24:27.584Z,103296.17
2019-03-20T13:26:58.109Z,103300.12
2019-03-20T13:29:28.456Z,103303.27
2019-03-20T13:31:58.693Z,103301.59
2019-03-20T13:34:29.051Z,103309.11
2019-03-20T13:36:59.345Z,103309.11
2019-03-20T13:39:29.683Z,103305.47
2019-03-20T13:41:59.817Z,103305.90
2019-03-20T13:44:30.634Z,103311.37
2019-03-20T13:47:01.102Z,103313.67
2019-03-20T13:49:31.557Z,103311.05
2019-03-20T13:52:01.796Z,103304.11
2019-03-20T13:54:32.029Z,103308.14
2019-03-20T13:57:02.304Z,103310.38
2019-03-20T13:59:32.460Z,103308.14
2019-03-20T14:02:02.795Z,103302.94
2019-03-20T14:04:32.992Z,103308.27
2019-03-20T14:07:03.101Z,103308.36
2019-03-20T14:09:33.326Z,103311.94
2019-03-20T14:12:03.959Z,103311.08
2019-03-20T14:14:34.256Z,103305.94
2019-03-20T14:17:04.701Z,103309.52
2019-03-20T14:19:35.011Z,103309.09
2019-03-20T14:22:05.291Z,103313.55
2019-03-20T14:24:36.115Z,103306.16
2019-03-20T14:27:07.105Z,103311.50
2019-03-20T14:29:39.882Z,103304.44
2019-03-20T14:32:13.377Z,103310.56
2019-03-20T14:34:43.727Z,103306.61
2019-03-20T14:37:14.092Z,103313.64
2019-03-20T14:39:47.639Z,103306.25
2019-03-20T14:42:17.950Z,103304.92
2019-03-20T14:44:52.729Z,103307.13
2019-03-20T14:47:23.014Z,103306.25
2019-03-20T14:49:53.326Z,103311.02
2019-03-20T14:52:23.636Z,103313.64
2019-03-20T14:54:53.874Z,103312.76
2019-03-20T14:57:25.850Z,103310.98
2019-03-20T14:59:56.079Z,103308.30
2019-03-20T15:02:26.394Z,103309.16
2019-03-20T15:04:56.771Z,103309.52
2019-03-20T15:07:26.881Z,103311.20
2019-03-20T15:09:57.118Z,103308.08
2019-03-20T15:12:27.462Z,103309.83
2019-03-20T15:14:57.649Z,103308.78
2019-03-20T15:17:28.122Z,103311.81
2019-03-20T15:19:58.310Z,103308.30
2019-03-20T15:22:28.440Z,103305.20
2019-03-20T15:24:58.772Z,103313.04
2019-03-20T15:27:28.957Z,103302.45
2019-03-20T15:30:04.337Z,103296.39
2019-03-20T15:32:35.738Z,103300.03
2019-03-20T15:35:10.360Z,103308.45
2019-03-20T15:37:43.184Z,103311.16
2019-03-20T15:40:15.703Z,103306.91
2019-03-20T15:42:45.956Z,103310.95
2019-03-20T15:45:16.773Z,103308.86
2019-03-20T15:47:46.975Z,103308.86
2019-03-20T15:50:17.875Z,103307.80
2019-03-20T15:52:48.177Z,103311.59
2019-03-20T15:55:25.197Z,103302.73
2019-03-20T15:57:55.473Z,103312.73
2019-03-20T16:00:25.786Z,103310.92
2019-03-20T16:03:00.082Z,103307.87
2019-03-20T16:05:30.229Z,103312.73
2019-03-20T16:08:00.356Z,103312.23
2019-03-20T16:10:33.695Z,103311.81
2019-03-20T16:13:03.885Z,103314.50
2019-03-20T16:15:34.306Z,103313.62
2019-03-20T16:18:04.815Z,103309.30
2019-03-20T16:20:35.326Z,103310.65
2019-03-20T16:23:07.100Z,103312.82
2019-03-20T16:25:37.524Z,103315.52
2019-03-20T16:28:08.140Z,103319.48
2019-03-20T16:30:38.643Z,103321.32
2019-03-20T16:33:09.083Z,103316.61
2019-03-20T16:35:39.604Z,103314.13
2019-03-20T16:38:10.356Z,103319.94
2019-03-20T16:40:40.803Z,103317.45
2019-03-20T16:43:11.199Z,103324.16
2019-03-20T16:45:41.713Z,103322.84
2019-03-20T16:48:12.145Z,103326.30
2019-03-20T16:51:11.402Z,103324.03
2019-03-20T16:53:41.333Z,103320.86
2019-03-20T16:56:11.581Z,103315.02
2019-03-20T16:58:41.714Z,103322.39
2019-03-20T17:01:11.944Z,103317.92
2019-03-20T17:03:42.076Z,103324.87
2019-03-20T17:06:12.355Z,103320.87
2019-03-20T17:08:42.512Z,103331.39
2019-03-20T17:11:12.697Z,103325.64
2019-03-20T17:13:43.008Z,103338.86
2019-03-20T17:16:13.235Z,103339.22
2019-03-20T17:18:43.405Z,103333.87
2019-03-20T17:21:13.944Z,103336.87
2019-03-20T17:23:44.436Z,103340.36
2019-03-20T17:26:15.040Z,103334.14
2019-03-20T17:28:45.423Z,103335.48
2019-03-20T17:31:15.870Z,103334.97
2019-03-20T17:33:46.399Z,103332.34
2019-03-20T17:36:18.425Z,103334.14
2019-03-20T17:38:48.861Z,103334.97
2019-03-20T17:41:43.132Z,103335.83
2019-03-20T17:44:13.643Z,103343.23
2019-03-20T17:46:43.915Z,103337.81
2019-03-20T17:49:13.962Z,103340.41
2019-03-20T17:51:44.032Z,103342.92
2019-03-20T17:54:14.192Z,103346.34
2019-03-20T17:56:44.253Z,103353.71
2019-03-20T17:59:14.396Z,103353.98
2019-03-20T18:01:44.533Z,103344.62
2019-03-20T18:04:14.618Z,103351.48
2019-03-20T18:06:44.768Z,103350.90
2019-03-20T18:09:15.023Z,103353.00
2019-03-20T18:11:47.776Z,103360.89
2019-03-20T18:14:17.113Z,103358.63
2019-03-20T18:16:47.302Z,103355.97
2019-03-20T18:19:17.443Z,103357.14
2019-03-20T18:21:47.666Z,103365.89
2019-03-20T18:24:17.738Z,103368.98
2019-03-20T18:26:47.878Z,103370.78
2019-03-20T18:29:18.055Z,103372.49
2019-03-20T18:31:48.382Z,103369.93
2019-03-20T18:34:18.646Z,103376.50
2019-03-20T18:36:49.382Z,103372.56
2019-03-20T18:39:20.640Z,103375.62
2019-03-20T18:41:57.806Z,103369.05
2019-03-20T18:44:22.850Z,103371.51
2019-03-20T18:46:53.097Z,103373.97
2019-03-20T18:49:23.304Z,103381.27
2019-03-20T18:51:53.515Z,103381.09
2019-03-20T18:54:23.748Z,103380.50
2019-03-20T18:56:53.798Z,103387.26
2019-03-20T18:59:23.947Z,103389.19
2019-03-20T19:01:54.098Z,103390.16
2019-03-20T19:04:26.090Z,103394.17
2019-03-20T19:06:56.220Z,103391.08
2019-03-20T19:09:26.375Z,103400.80
2019-03-20T19:11:56.563Z,103403.95
2019-03-20T19:14:26.624Z,103398.41
2019-03-20T19:16:56.901Z,103396.84
2019-03-20T19:19:27.067Z,103406.12
2019-03-20T19:21:57.291Z,103407.20
2019-03-20T19:24:27.497Z,103404.73
2019-03-20T19:26:57.669Z,103397.38
2019-03-20T19:29:27.959Z,103397.06
2019-03-20T19:31:58.203Z,103403.05
2019-03-20T19:34:28.441Z,103409.30
2019-03-20T19:36:58.748Z,103413.84
2019-03-20T19:39:29.192Z,103417.13
2019-03-20T19:41:59.351Z,103415.27
2019-03-20T19:44:31.539Z,103413.75
2019-03-20T19:47:01.863Z,103418.30
2019-03-20T19:49:32.134Z,103410.66
2019-03-20T19:52:02.255Z,103410.53
2019-03-20T19:54:32.506Z,103412.56
2019-03-20T19:57:02.909Z,103408.73
2019-03-20T19:59:33.009Z,103408.03
2019-03-20T20:02:03.157Z,103405.21
2019-03-20T20:04:33.295Z,103409.83
2019-03-20T20:07:03.451Z,103410.52
2019-03-20T20:09:33.518Z,103414.75
2019-03-20T20:12:03.623Z,103422.45
2019-03-20T20:14:33.709Z,103417.43
2019-03-20T20:17:03.820Z,103417.77
2019-03-20T20:19:34.355Z,103424.74
2019-03-20T20:22:05.316Z,103420.39
2019-03-20T20:24:36.017Z,103421.08
2019-03-20T20:27:09.724Z,103428.47
2019-03-20T20:29:40.209Z,103421.45
2019-03-20T20:34:38.583Z,103421.08
2019-03-20T20:37:09.214Z,103428.00
2019-03-20T20:39:40.302Z,103422.59
2019-03-20T20:42:10.881Z,103429.98
2019-03-20T20:44:41.535Z,103420.27
2019-03-20T20:47:12.559Z,103419.61
2019-03-20T20:49:43.391Z,103433.47
2019-03-20T20:52:19.448Z,103436.55
2019-03-20T20:57:17.053Z,103428.27
2019-03-20T20:59:53.516Z,103437.57
2019-03-20T21:02:24.099Z,103441.84
2019-03-20T21:04:54.644Z,103446.19
2019-03-20T21:07:26.620Z,103444.95
2019-03-20T21:09:57.179Z,103447.37
2019-03-20T21:12:27.641Z,103446.69
2019-03-20T21:14:58.403Z,103444.58
2019-03-20T21:18:56.396Z,103448.17
2019-03-20T21:21:40.124Z,103450.87
2019-03-20T21:24:27.842Z,103452.59
2019-03-20T21:28:03.093Z,103456.66
2019-03-20T21:31:13.229Z,103458.05
2019-03-20T21:34:58.991Z,103452.31
2019-03-20T21:38:09.515Z,103450.95
2019-03-20T21:41:24.399Z,103457.52
2019-03-20T21:44:34.479Z,103468.11
2019-03-20T21:47:33.243Z,103464.17
2019-03-20T21:51:20.529Z,103469.03
2019-03-20T21:54:59.138Z,103464.83
2019-03-20T21:58:12.089Z,103458.83
2019-03-20T22:01:48.950Z,103458.32
2019-03-20T22:04:20.204Z,103459.72
2019-03-20T22:07:10.975Z,103464.95
2019-03-20T22:10:39.256Z,103467.06
2019-03-20T22:13:19.719Z,103459.91
2019-03-20T22:16:26.631Z,103459.94
2019-03-20T22:19:41.553Z,103463.78
2019-03-20T22:23:31.279Z,103463.89
2019-03-20T22:27:21.774Z,103464.55
2019-03-20T22:29:52.679Z,103472.05
2019-03-20T22:33:23.804Z,103470.36
2019-03-20T22:36:19.971Z,103471.67
2019-03-20T22:40:07.828Z,103466.92
2019-03-20T22:43:04.254Z,103463.84
2019-03-20T22:46:31.655Z,103467.12
2019-03-20T22:50:26.783Z,103470.98
2019-03-20T22:53:52.043Z,103466.47
2019-03-20T22:57:33.502Z,103464.83
2019-03-20T23:00:05.441Z,103462.96
2019-03-20T23:03:02.651Z,103463.05
2019-03-20T23:05:33.800Z,103463.19
2019-03-20T23:08:13.394Z,103461.88
2019-03-20T23:10:45.101Z,103461.08
2019-03-20T23:13:19.201Z,103457.96
2019-03-20T23:15:49.169Z,103457.07
2019-03-20T23:18:20.408Z,103461.22
2019-03-20T23:20:51.536Z,103460.56
2019-03-20T23:23:22.541Z,103466.02
2019-03-20T23:25:53.478Z,103463.13
2019-03-20T23:28:25.246Z,103461.48
2019-03-20T23:30:56.343Z,103468.67
2019-03-20T23:33:27.369Z,103465.39
2019-03-20T23:35:58.542Z,103461.61
2019-03-20T23:38:29.626Z,103464.78
2019-03-20T23:41:00.603Z,103457.52
2019-03-20T23:43:31.476Z,103452.75
2019-03-20T23:46:02.594Z,103455.51
2019-03-20T23:49:00.048Z,103455.59
2019-03-20T23:51:31.082Z,103461.89
2019-03-20T23:54:02.122Z,103460.25
2019-03-20T23:56:34.992Z,103468.23
2019-03-20T23:59:06.743Z,103469.21
